createdAt,value
2018-03-04T00:01:08.257Z,93.00
2018-03-04T00:03:11.592Z,93.10
2018-03-04T00:05:14.944Z,93.00
2018-03-04T00:07:18.287Z,93.10
2018-03-04T00:09:21.622Z,93.00
2018-03-04T00:11:25.746Z,93.00
2018-03-04T00:13:29.070Z,93.00
2018-03-04T00:15:32.415Z,93.00
2018-03-04T00:17:36.536Z,93.00
2018-03-04T00:19:39.891Z,93.00
2018-03-04T00:21:43.290Z,92.90
2018-03-04T00:23:47.385Z,92.90
2018-03-04T00:25:50.730Z,93.00
2018-03-04T00:27:54.095Z,92.90
2018-03-04T00:29:58.218Z,92.80
2018-03-04T00:32:01.575Z,92.70
2018-03-04T00:34:04.937Z,92.80
2018-03-04T00:36:08.301Z,92.70
2018-03-04T00:38:11.670Z,92.70
2018-03-04T00:40:15.776Z,92.70
2018-03-04T00:42:19.134Z,92.60
2018-03-04T00:44:22.499Z,92.70
2018-03-04T00:46:26.578Z,92.90
2018-03-04T00:48:30.700Z,92.90
2018-03-04T00:50:34.070Z,92.90
2018-03-04T00:52:38.171Z,93.10
2018-03-04T00:54:41.527Z,93.20
2018-03-04T00:56:44.854Z,93.20
2018-03-04T00:58:48.232Z,93.20
2018-03-04T01:00:51.563Z,93.10
2018-03-04T01:02:54.886Z,93.30
2018-03-04T01:04:58.243Z,93.20
2018-03-04T01:07:01.565Z,93.30
2018-03-04T01:09:04.919Z,93.20
2018-03-04T01:11:08.264Z,93.50
2018-03-04T01:13:11.606Z,93.20
2018-03-04T01:15:14.977Z,92.90
2018-03-04T01:17:19.078Z,93.10
2018-03-04T01:19:22.420Z,93.10
2018-03-04T01:21:25.751Z,93.00
2018-03-04T01:23:29.090Z,93.20
2018-03-04T01:25:32.445Z,93.10
2018-03-04T01:27:36.553Z,93.10
2018-03-04T01:29:39.984Z,93.00
2018-03-04T01:31:43.344Z,93.40
2018-03-04T01:33:47.436Z,93.20
2018-03-04T01:35:50.808Z,93.00
2018-03-04T01:37:54.142Z,93.40
2018-03-04T01:39:58.289Z,93.00
2018-03-04T01:42:01.618Z,93.00
2018-03-04T01:44:04.962Z,93.20
2018-03-04T01:46:09.093Z,93.20
2018-03-04T01:48:12.431Z,93.20
2018-03-04T01:50:16.518Z,93.30
2018-03-04T01:52:19.842Z,93.30
2018-03-04T01:54:23.935Z,93.50
2018-03-04T01:56:28.058Z,93.20
2018-03-04T01:58:32.155Z,93.40
2018-03-04T02:00:36.264Z,93.10
2018-03-04T02:02:39.698Z,93.10
2018-03-04T02:04:43.028Z,93.20
2018-03-04T02:06:47.180Z,93.00
2018-03-04T02:08:50.506Z,93.00
2018-03-04T02:10:53.825Z,93.30
2018-03-04T02:12:57.200Z,93.30
2018-03-04T02:15:00.545Z,93.30
2018-03-04T02:17:03.949Z,93.20
2018-03-04T02:19:07.279Z,93.40
2018-03-04T02:21:11.403Z,93.70
2018-03-04T02:23:15.554Z,93.70
2018-03-04T02:25:18.880Z,93.60
2018-03-04T02:27:22.268Z,93.60
2018-03-04T02:29:25.617Z,93.70
2018-03-04T02:31:28.964Z,93.60
2018-03-04T02:33:32.347Z,93.70
2018-03-04T02:35:35.670Z,93.30
2018-03-04T02:37:39.002Z,93.50
2018-03-04T02:39:42.403Z,93.50
2018-03-04T02:41:45.729Z,93.50
2018-03-04T02:43:49.088Z,93.60
2018-03-04T02:45:52.420Z,93.60
2018-03-04T02:47:55.758Z,93.40
2018-03-04T02:49:59.131Z,93.40
2018-03-04T02:52:02.490Z,93.80
2018-03-04T02:54:05.892Z,93.70
2018-03-04T02:56:09.230Z,93.60
2018-03-04T02:58:12.580Z,93.90
2018-03-04T03:00:16.085Z,93.30
2018-03-04T03:02:19.446Z,93.20
2018-03-04T03:04:22.814Z,93.30
2018-03-04T03:06:26.152Z,93.30
2018-03-04T03:08:29.490Z,93.20
2018-03-04T03:10:32.852Z,93.20
2018-03-04T03:12:36.948Z,93.20
2018-03-04T03:14:41.057Z,93.30
2018-03-04T03:16:45.186Z,93.30
2018-03-04T03:18:48.507Z,93.20
2018-03-04T03:20:51.857Z,93.40
2018-03-04T03:22:55.215Z,93.00
2018-03-04T03:24:59.338Z,93.30
2018-03-04T03:27:03.474Z,93.40
2018-03-04T03:29:06.804Z,93.40
2018-03-04T03:31:10.165Z,93.40
2018-03-04T03:33:13.541Z,93.40
2018-03-04T03:35:16.876Z,93.30
2018-03-04T03:37:20.200Z,93.50
2018-03-04T03:39:23.545Z,93.70
2018-03-04T03:41:26.923Z,93.30
2018-03-04T03:43:30.273Z,93.40
2018-03-04T03:45:33.604Z,93.70
2018-03-04T03:47:36.968Z,93.50
2018-03-04T03:49:41.057Z,93.40
2018-03-04T03:51:44.437Z,93.40
2018-03-04T03:53:47.765Z,93.30
2018-03-04T03:55:51.879Z,93.60
2018-03-04T03:57:55.997Z,93.30
2018-03-04T03:59:59.337Z,93.40
2018-03-04T04:02:02.678Z,93.30
2018-03-04T04:04:06.018Z,93.20
2018-03-04T04:06:09.359Z,93.30
2018-03-04T04:08:12.768Z,93.40
2018-03-04T04:10:16.101Z,93.40
2018-03-04T04:12:19.448Z,93.40
2018-03-04T04:14:22.832Z,93.40
2018-03-04T04:16:26.175Z,93.40
2018-03-04T04:18:29.502Z,93.30
2018-03-04T04:20:32.871Z,93.40
2018-03-04T04:22:36.194Z,93.30
2018-03-04T04:24:39.665Z,93.20
2018-03-04T04:26:43.766Z,93.40
2018-03-04T04:28:47.109Z,93.30
2018-03-04T04:30:50.436Z,93.40
2018-03-04T04:32:53.763Z,93.40
2018-03-04T04:34:57.133Z,93.30
2018-03-04T04:37:00.450Z,93.30
2018-03-04T04:39:03.798Z,93.40
2018-03-04T04:41:07.162Z,93.30
2018-03-04T04:43:10.498Z,93.40
2018-03-04T04:45:13.883Z,93.10
2018-03-04T04:47:17.219Z,93.10
2018-03-04T04:49:20.556Z,93.10
2018-03-04T04:51:23.932Z,93.30
2018-03-04T04:53:27.301Z,93.30
2018-03-04T04:55:30.669Z,93.20
2018-03-04T04:57:34.011Z,93.30
2018-03-04T04:59:37.334Z,93.20
2018-03-04T05:01:40.684Z,93.30
2018-03-04T05:03:44.025Z,93.30
2018-03-04T05:05:48.170Z,93.20
2018-03-04T05:07:51.524Z,93.10
2018-03-04T05:09:55.613Z,93.10
2018-03-04T05:11:58.978Z,93.10
2018-03-04T05:14:02.322Z,93.00
2018-03-04T05:16:06.437Z,92.90
2018-03-04T05:18:09.792Z,92.90
2018-03-04T05:20:13.165Z,92.80
2018-03-04T05:22:16.573Z,92.80
2018-03-04T05:24:19.900Z,93.00
2018-03-04T05:26:23.248Z,93.00
2018-03-04T05:28:26.587Z,93.30
2018-03-04T05:30:29.908Z,93.20
2018-03-04T05:32:33.266Z,93.10
2018-03-04T05:34:37.364Z,92.80
2018-03-04T05:36:41.470Z,93.20
2018-03-04T05:38:44.814Z,93.20
2018-03-04T05:40:48.183Z,93.20
2018-03-04T05:42:51.508Z,93.20
2018-03-04T05:44:54.875Z,93.10
2018-03-04T05:46:58.204Z,93.30
2018-03-04T05:49:01.588Z,93.00
2018-03-04T05:51:04.913Z,93.30
2018-03-04T05:53:09.001Z,92.80
2018-03-04T05:55:12.367Z,92.80
2018-03-04T05:57:15.737Z,92.70
2018-03-04T05:59:19.096Z,92.70
2018-03-04T06:01:23.207Z,92.70
2018-03-04T06:03:26.556Z,92.70
2018-03-04T06:05:29.924Z,92.60
2018-03-04T06:07:33.251Z,92.60
2018-03-04T06:09:36.632Z,92.70
2018-03-04T06:11:39.978Z,92.70
2018-03-04T06:13:43.301Z,92.70
2018-03-04T06:15:46.682Z,92.60
2018-03-04T06:17:50.027Z,92.60
2018-03-04T06:19:53.373Z,92.60
2018-03-04T06:21:56.699Z,92.70
2018-03-04T06:24:00.055Z,92.60
2018-03-04T06:26:03.412Z,92.40
2018-03-04T06:28:07.507Z,92.40
2018-03-04T06:30:11.636Z,92.50
2018-03-04T06:32:16.655Z,92.60
2018-03-04T06:34:20.816Z,92.80
2018-03-04T06:36:24.458Z,92.40
2018-03-04T06:38:28.557Z,92.40
2018-03-04T06:40:31.937Z,92.40
2018-03-04T06:42:35.349Z,92.40
2018-03-04T06:44:38.694Z,92.60
2018-03-04T06:46:42.096Z,92.70
2018-03-04T06:48:45.432Z,92.90
2018-03-04T06:50:48.804Z,93.00
2018-03-04T06:52:52.184Z,92.90
2018-03-04T06:54:56.418Z,93.10
2018-03-04T06:57:00.553Z,93.10
2018-03-04T06:59:03.897Z,93.10
2018-03-04T07:01:07.227Z,93.40
2018-03-04T07:03:11.346Z,93.20
2018-03-04T07:05:14.724Z,93.30
2018-03-04T07:07:18.837Z,93.60
2018-03-04T07:09:22.235Z,93.60
2018-03-04T07:11:25.573Z,93.40
2018-03-04T07:13:28.974Z,93.40
2018-03-04T07:15:32.387Z,93.10
2018-03-04T07:17:35.735Z,93.20
2018-03-04T07:19:39.154Z,93.10
2018-03-04T07:21:42.545Z,93.20
2018-03-04T07:23:45.937Z,93.20
2018-03-04T07:25:49.261Z,93.30
2018-03-04T07:27:52.601Z,93.30
2018-03-04T07:29:55.961Z,93.40
2018-03-04T07:31:59.290Z,93.50
2018-03-04T07:34:02.651Z,93.40
2018-03-04T07:36:05.988Z,93.40
2018-03-04T07:38:09.313Z,93.30
2018-03-04T07:40:13.438Z,93.50
2018-03-04T07:42:16.836Z,93.40
2018-03-04T07:44:20.205Z,93.50
2018-03-04T07:46:23.545Z,93.40
2018-03-04T07:48:26.891Z,93.40
2018-03-04T07:50:31.015Z,93.40
2018-03-04T07:52:34.428Z,93.40
2018-03-04T07:54:37.703Z,93.50
2018-03-04T07:56:41.034Z,93.50
2018-03-04T07:58:45.591Z,93.40
2018-03-04T08:00:48.961Z,93.50
2018-03-04T08:02:52.307Z,93.70
2018-03-04T08:04:55.643Z,93.70
2018-03-04T08:06:59.006Z,93.60
2018-03-04T08:09:02.363Z,93.70
2018-03-04T08:11:05.709Z,93.60
2018-03-04T08:13:09.041Z,93.40
2018-03-04T08:15:12.375Z,93.50
2018-03-04T08:17:15.752Z,93.20
2018-03-04T08:19:19.092Z,93.10
2018-03-04T08:21:23.236Z,93.20
2018-03-04T08:23:26.575Z,93.10
2018-03-04T08:25:37.055Z,93.00
2018-03-04T08:27:52.185Z,93.30
2018-03-04T08:29:56.575Z,93.10
2018-03-04T08:32:00.798Z,92.90
2018-03-04T08:34:04.127Z,92.90
2018-03-04T08:36:08.243Z,93.10
2018-03-04T08:38:11.660Z,93.10
2018-03-04T08:40:15.049Z,92.70
2018-03-04T08:42:19.145Z,93.10
2018-03-04T08:44:23.256Z,93.10
2018-03-04T08:46:27.370Z,93.20
2018-03-04T08:48:31.699Z,93.20
2018-03-04T08:50:35.078Z,93.20
2018-03-04T08:52:38.482Z,93.30
2018-03-04T08:54:41.902Z,93.40
2018-03-04T08:56:45.324Z,93.30
2018-03-04T08:58:48.711Z,92.90
2018-03-04T09:00:52.074Z,92.90
2018-03-04T09:02:55.403Z,92.90
2018-03-04T09:04:58.764Z,92.80
2018-03-04T09:07:02.096Z,92.90
2018-03-04T09:09:06.208Z,92.80
2018-03-04T09:11:10.314Z,92.90
2018-03-04T09:13:14.419Z,92.70
2018-03-04T09:15:18.563Z,92.60
2018-03-04T09:17:21.894Z,92.50
2018-03-04T09:19:25.256Z,92.70
2018-03-04T09:21:28.629Z,92.60
2018-03-04T09:23:31.988Z,92.90
2018-03-04T09:25:35.387Z,93.10
2018-03-04T09:27:39.510Z,92.90
2018-03-04T09:29:44.157Z,92.80
2018-03-04T09:31:47.728Z,92.70
2018-03-04T09:33:51.834Z,92.70
2018-03-04T09:35:55.222Z,92.70
2018-03-04T09:37:59.336Z,92.60
2018-03-04T09:40:03.447Z,92.60
2018-03-04T09:42:06.946Z,92.60
2018-03-04T09:44:11.047Z,92.40
2018-03-04T09:46:15.238Z,91.50
2018-03-04T09:48:18.646Z,91.60
2018-03-04T09:50:22.087Z,91.40
2018-03-04T09:52:25.519Z,91.60
2018-03-04T09:54:28.883Z,91.40
2018-03-04T09:56:32.221Z,91.00
2018-03-04T09:58:36.327Z,90.50
2018-03-04T10:00:39.665Z,90.50
2018-03-04T10:02:43.030Z,90.40
2018-03-04T10:04:46.352Z,90.50
2018-03-04T10:06:50.493Z,90.40
2018-03-04T10:08:53.906Z,90.40
2018-03-04T10:10:58.002Z,90.20
2018-03-04T10:13:01.435Z,90.20
2018-03-04T10:15:04.815Z,90.50
2018-03-04T10:17:08.976Z,90.10
2018-03-04T10:19:13.577Z,90.20
2018-03-04T10:21:17.106Z,90.10
2018-03-04T10:23:20.467Z,88.80
2018-03-04T10:25:24.003Z,88.30
2018-03-04T10:27:30.350Z,89.20
2018-03-04T10:29:34.739Z,88.20
2018-03-04T10:31:38.122Z,88.30
2018-03-04T10:33:41.724Z,88.20
2018-03-04T10:35:45.168Z,88.10
2018-03-04T10:37:49.278Z,88.50
2018-03-04T10:39:53.408Z,89.50
2018-03-04T10:41:56.736Z,89.60
2018-03-04T10:44:00.078Z,89.50
2018-03-04T10:46:03.441Z,89.00
2018-03-04T10:48:06.777Z,89.60
2018-03-04T10:50:10.141Z,89.60
2018-03-04T10:52:13.447Z,89.40
2018-03-04T10:54:16.781Z,89.10
2018-03-04T10:56:20.128Z,89.10
2018-03-04T10:58:24.907Z,88.50
2018-03-04T11:00:28.963Z,88.40
2018-03-04T11:02:39.326Z,86.80
2018-03-04T11:04:43.955Z,85.30
2018-03-04T11:06:47.311Z,85.30
2018-03-04T11:08:50.641Z,85.60
2018-03-04T11:10:53.985Z,83.30
2018-03-04T11:12:57.350Z,82.90
2018-03-04T11:15:00.671Z,81.00
2018-03-04T11:17:05.130Z,80.80
2018-03-04T11:19:09.263Z,79.30
2018-03-04T11:21:12.896Z,79.30
2018-03-04T11:23:17.240Z,79.50
2018-03-04T11:25:21.533Z,79.40
2018-03-04T11:27:26.004Z,79.10
2018-03-04T11:29:29.679Z,78.70
2018-03-04T11:31:34.089Z,78.50
2018-03-04T11:33:37.707Z,78.40
2018-03-04T11:35:41.687Z,78.70
2018-03-04T11:37:45.795Z,78.30
2018-03-04T11:39:49.881Z,80.20
2018-03-04T11:41:53.213Z,80.30
2018-03-04T11:43:56.576Z,79.50
2018-03-04T11:46:00.800Z,77.40
2018-03-04T11:48:04.922Z,78.40
2018-03-04T11:50:09.031Z,78.10
2018-03-04T11:52:12.579Z,78.10
2018-03-04T11:54:16.883Z,77.60
2018-03-04T11:56:20.211Z,75.90
2018-03-04T11:58:25.018Z,75.40
2018-03-04T12:00:28.358Z,76.10
2018-03-04T12:02:32.725Z,78.10
2018-03-04T12:04:36.511Z,78.10
2018-03-04T12:06:41.259Z,76.90
2018-03-04T12:08:44.607Z,77.10
2018-03-04T12:10:47.931Z,78.50
2018-03-04T12:12:52.359Z,78.40
2018-03-04T12:14:56.522Z,78.30
2018-03-04T12:17:00.069Z,78.10
2018-03-04T12:19:04.884Z,78.40
2018-03-04T12:21:08.418Z,78.40
2018-03-04T12:23:11.759Z,78.50
2018-03-04T12:25:15.183Z,78.00
2018-03-04T12:27:19.338Z,78.30
2018-03-04T12:29:22.766Z,78.10
2018-03-04T12:31:27.223Z,77.90
2018-03-04T12:33:30.674Z,77.90
2018-03-04T12:35:34.033Z,77.60
2018-03-04T12:37:37.365Z,75.20
2018-03-04T12:39:40.948Z,76.30
2018-03-04T12:41:44.401Z,77.90
2018-03-04T12:43:48.315Z,78.00
2018-03-04T12:45:52.544Z,78.30
2018-03-04T12:47:56.089Z,78.80
2018-03-04T12:49:59.509Z,78.70
2018-03-04T12:52:02.936Z,79.30
2018-03-04T12:54:06.326Z,79.10
2018-03-04T12:56:09.692Z,80.30
2018-03-04T12:58:13.106Z,79.50
2018-03-04T13:00:16.723Z,77.90
2018-03-04T13:02:20.848Z,78.20
2018-03-04T13:04:24.940Z,78.70
2018-03-04T13:06:28.484Z,78.40
2018-03-04T13:08:31.950Z,77.50
2018-03-04T13:10:35.386Z,77.00
2018-03-04T13:12:38.750Z,76.80
2018-03-04T13:14:42.171Z,75.30
2018-03-04T13:16:45.795Z,75.00
2018-03-04T13:18:49.442Z,73.00
2018-03-04T13:20:52.938Z,73.30
2018-03-04T13:22:57.785Z,72.80
2018-03-04T13:25:01.253Z,72.40
2018-03-04T13:27:04.814Z,72.50
2018-03-04T13:29:09.149Z,72.90
2018-03-04T13:31:12.759Z,73.10
2018-03-04T13:33:16.140Z,73.90
2018-03-04T13:35:20.298Z,75.10
2018-03-04T13:37:24.776Z,74.40
2018-03-04T13:39:28.920Z,74.80
2018-03-04T13:41:33.209Z,74.80
2018-03-04T13:43:36.841Z,73.90
2018-03-04T13:45:40.244Z,74.30
2018-03-04T13:47:43.592Z,74.50
2018-03-04T13:49:47.434Z,75.10
2018-03-04T13:51:53.161Z,76.00
2018-03-04T13:53:57.198Z,76.00
2018-03-04T13:56:00.942Z,76.00
2018-03-04T13:58:04.314Z,75.90
2018-03-04T14:00:07.660Z,76.80
2018-03-04T14:02:11.361Z,76.80
2018-03-04T14:04:15.983Z,77.50
2018-03-04T14:06:20.584Z,76.90
2018-03-04T14:08:24.448Z,77.20
2018-03-04T14:10:27.929Z,77.20
2018-03-04T14:12:31.360Z,77.90
2018-03-04T14:14:34.688Z,78.60
2018-03-04T14:16:38.333Z,78.10
2018-03-04T14:18:42.446Z,77.70
2018-03-04T14:20:46.609Z,78.60
2018-03-04T14:22:49.946Z,78.60
2018-03-04T14:24:54.419Z,77.70
2018-03-04T14:26:59.024Z,77.80
2018-03-04T14:29:02.382Z,78.50
2018-03-04T14:31:06.047Z,78.00
2018-03-04T14:33:09.420Z,78.00
2018-03-04T14:35:12.887Z,77.90
2018-03-04T14:37:16.246Z,77.00
2018-03-04T14:39:19.731Z,78.30
2018-03-04T14:41:23.077Z,78.00
2018-03-04T14:43:26.425Z,78.70
2018-03-04T14:45:30.554Z,78.80
2018-03-04T14:47:34.667Z,78.60
2018-03-04T14:49:38.000Z,79.20
2018-03-04T14:51:41.348Z,78.50
2018-03-04T14:53:44.710Z,78.60
2018-03-04T14:55:48.033Z,79.00
2018-03-04T14:57:52.218Z,79.40
2018-03-04T14:59:56.323Z,79.40
2018-03-04T15:01:59.708Z,79.40
2018-03-04T15:04:03.293Z,79.60
2018-03-04T15:06:06.615Z,80.10
2018-03-04T15:08:11.019Z,79.60
2018-03-04T15:10:14.452Z,80.10
2018-03-04T15:12:17.766Z,80.80
2018-03-04T15:14:21.156Z,79.60
2018-03-04T15:16:24.496Z,80.50
2018-03-04T15:18:28.618Z,80.80
2018-03-04T15:20:33.594Z,80.50
2018-03-04T15:22:36.924Z,80.60
2018-03-04T15:24:40.253Z,80.70
2018-03-04T15:26:43.609Z,80.70
2018-03-04T15:28:47.688Z,81.90
2018-03-04T15:30:51.205Z,81.70
2018-03-04T15:32:54.546Z,81.70
2018-03-04T15:34:58.105Z,81.70
2018-03-04T15:37:02.186Z,82.40
2018-03-04T15:39:05.509Z,82.20
2018-03-04T15:41:09.032Z,82.40
2018-03-04T15:43:12.458Z,82.00
2018-03-04T15:45:15.833Z,82.20
2018-03-04T15:47:20.697Z,82.20
2018-03-04T15:49:24.212Z,82.40
2018-03-04T15:51:28.326Z,82.30
2018-03-04T15:53:32.544Z,81.90
2018-03-04T15:55:35.986Z,82.10
2018-03-04T15:57:39.336Z,82.40
2018-03-04T15:59:42.689Z,82.70
2018-03-04T16:01:46.086Z,82.50
2018-03-04T16:03:49.406Z,82.30
2018-03-04T16:05:52.761Z,82.00
2018-03-04T16:07:56.857Z,81.80
2018-03-04T16:10:00.207Z,81.90
2018-03-04T16:12:03.592Z,81.70
2018-03-04T16:14:06.930Z,81.60
2018-03-04T16:16:10.628Z,81.70
2018-03-04T16:18:14.327Z,82.20
2018-03-04T16:20:17.759Z,83.10
2018-03-04T16:22:21.937Z,83.00
2018-03-04T16:24:26.132Z,83.40
2018-03-04T16:26:29.494Z,83.30
2018-03-04T16:28:32.831Z,82.90
2018-03-04T16:30:36.186Z,83.70
2018-03-04T16:32:39.561Z,83.30
2018-03-04T16:34:46.455Z,84.10
2018-03-04T16:36:50.070Z,84.20
2018-03-04T16:38:53.760Z,84.80
2018-03-04T16:40:57.161Z,84.70
2018-03-04T16:43:00.568Z,84.50
2018-03-04T16:45:03.978Z,84.50
2018-03-04T16:47:07.539Z,84.30
2018-03-04T16:49:11.004Z,84.10
2018-03-04T16:51:14.349Z,84.40
2018-03-04T16:53:17.710Z,84.30
2018-03-04T16:55:21.050Z,84.60
2018-03-04T16:57:24.417Z,84.80
2018-03-04T16:59:27.790Z,84.60
2018-03-04T17:01:31.234Z,84.40
2018-03-04T17:03:35.350Z,85.00
2018-03-04T17:05:39.507Z,85.00
2018-03-04T17:07:42.840Z,85.00
2018-03-04T17:09:48.156Z,85.20
2018-03-04T17:11:51.729Z,85.10
2018-03-04T17:13:55.154Z,84.70
2018-03-04T17:15:58.522Z,84.90
2018-03-04T17:18:01.870Z,86.00
2018-03-04T17:20:05.240Z,86.30
2018-03-04T17:22:09.357Z,86.30
2018-03-04T17:24:13.456Z,86.80
2018-03-04T17:26:17.051Z,86.90
2018-03-04T17:28:21.185Z,86.90
2018-03-04T17:30:24.528Z,86.80
2018-03-04T17:32:27.950Z,86.80
2018-03-04T17:34:32.120Z,86.90
2018-03-04T17:36:35.473Z,87.10
2018-03-04T17:38:38.896Z,87.70
2018-03-04T17:40:42.347Z,87.50
2018-03-04T17:42:46.454Z,87.60
2018-03-04T17:44:50.554Z,87.80
2018-03-04T17:46:53.907Z,87.80
2018-03-04T17:48:57.266Z,87.80
2018-03-04T17:51:00.645Z,87.90
2018-03-04T17:53:04.738Z,88.70
2018-03-04T17:55:08.068Z,88.80
2018-03-04T17:57:11.404Z,87.60
2018-03-04T17:59:14.744Z,88.50
2018-03-04T18:01:18.085Z,88.80
2018-03-04T18:03:21.432Z,88.00
2018-03-04T18:05:24.776Z,88.80
2018-03-04T18:07:28.113Z,88.50
2018-03-04T18:09:31.450Z,88.80
2018-03-04T18:11:34.797Z,87.60
2018-03-04T18:13:38.137Z,88.60
2018-03-04T18:15:41.509Z,88.30
2018-03-04T18:17:44.849Z,88.40
2018-03-04T18:19:48.240Z,88.70
2018-03-04T18:21:51.583Z,88.90
2018-03-04T18:23:54.909Z,88.90
2018-03-04T18:25:58.291Z,89.00
2018-03-04T18:28:01.663Z,89.20
2018-03-04T18:30:05.009Z,89.70
2018-03-04T18:32:08.351Z,88.70
2018-03-04T18:34:12.610Z,89.20
2018-03-04T18:36:15.980Z,89.40
2018-03-04T18:38:20.084Z,90.10
2018-03-04T18:40:24.223Z,90.00
2018-03-04T18:42:27.614Z,90.00
2018-03-04T18:44:30.979Z,90.10
2018-03-04T18:46:35.326Z,90.00
2018-03-04T18:48:38.690Z,90.20
2018-03-04T18:50:42.807Z,90.70
2018-03-04T18:52:46.199Z,90.70
2018-03-04T18:54:49.535Z,90.50
2018-03-04T18:56:52.877Z,90.70
2018-03-04T18:58:56.975Z,90.10
2018-03-04T19:01:00.309Z,90.10
2018-03-04T19:03:04.777Z,90.30
2018-03-04T19:05:10.178Z,90.40
2018-03-04T19:07:13.534Z,90.80
2018-03-04T19:09:16.948Z,90.80
2018-03-04T19:11:20.290Z,91.30
2018-03-04T19:13:23.872Z,91.50
2018-03-04T19:15:27.208Z,91.50
2018-03-04T19:17:31.250Z,91.60
2018-03-04T19:19:35.355Z,91.70
2018-03-04T19:21:38.937Z,91.70
2018-03-04T19:23:42.245Z,91.70
2018-03-04T19:25:45.681Z,91.50
2018-03-04T19:27:49.561Z,91.20
2018-03-04T19:29:53.017Z,91.20
2018-03-04T19:31:56.404Z,91.60
2018-03-04T19:33:59.834Z,91.60
2018-03-04T19:36:03.188Z,91.50
2018-03-04T19:38:06.554Z,91.40
2018-03-04T19:40:09.997Z,91.70
2018-03-04T19:42:13.966Z,92.50
2018-03-04T19:44:17.325Z,92.80
2018-03-04T19:46:20.732Z,92.60
2018-03-04T19:48:24.089Z,92.60
2018-03-04T19:50:27.448Z,92.50
2018-03-04T19:52:30.806Z,92.20
2018-03-04T19:54:34.134Z,92.10
2018-03-04T19:56:37.468Z,92.30
2018-03-04T19:58:41.600Z,91.90
2018-03-04T20:00:44.945Z,91.90
2018-03-04T20:02:48.293Z,92.00
2018-03-04T20:04:51.668Z,92.40
2018-03-04T20:06:55.797Z,92.80
2018-03-04T20:08:59.245Z,92.80
2018-03-04T20:11:02.576Z,93.20
2018-03-04T20:13:06.018Z,93.40
2018-03-04T20:15:09.354Z,93.90
2018-03-04T20:17:12.751Z,94.00
2018-03-04T20:19:16.275Z,94.00
2018-03-04T20:21:19.818Z,94.20
2018-03-04T20:23:23.186Z,94.40
2018-03-04T20:25:26.522Z,94.40
2018-03-04T20:27:29.850Z,94.30
2018-03-04T20:29:33.183Z,94.40
2018-03-04T20:31:36.498Z,94.50
2018-03-04T20:33:40.657Z,94.70
2018-03-04T20:35:44.872Z,94.70
2018-03-04T20:37:48.189Z,94.70
2018-03-04T20:39:51.803Z,94.60
2018-03-04T20:41:55.341Z,94.60
2018-03-04T20:43:58.655Z,94.70
2018-03-04T20:46:02.032Z,94.90
2018-03-04T20:48:05.366Z,94.80
2018-03-04T20:50:08.706Z,94.80
2018-03-04T20:52:12.061Z,94.90
2018-03-04T20:54:16.146Z,94.80
2018-03-04T20:56:19.478Z,94.90
2018-03-04T20:58:22.823Z,94.90
2018-03-04T21:00:26.159Z,95.00
2018-03-04T21:02:29.538Z,94.90
2018-03-04T21:04:32.982Z,94.90
2018-03-04T21:06:36.320Z,94.90
2018-03-04T21:08:40.424Z,95.00
2018-03-04T21:10:44.041Z,94.90
2018-03-04T21:12:47.492Z,95.10
2018-03-04T21:14:51.627Z,95.00
2018-03-04T21:16:55.995Z,95.10
2018-03-04T21:19:00.160Z,95.10
2018-03-04T21:21:04.266Z,95.20
2018-03-04T21:23:08.008Z,95.20
2018-03-04T21:25:11.550Z,95.20
2018-03-04T21:27:14.866Z,95.20
2018-03-04T21:29:19.137Z,95.30
2018-03-04T21:31:22.967Z,95.20
2018-03-04T21:33:26.542Z,95.30
2018-03-04T21:35:29.870Z,95.40
2018-03-04T21:37:33.216Z,95.20
2018-03-04T21:39:36.569Z,95.20
2018-03-04T21:41:40.104Z,95.30
2018-03-04T21:43:44.230Z,95.30
2018-03-04T21:45:47.553Z,95.20
2018-03-04T21:47:51.004Z,95.10
2018-03-04T21:49:54.334Z,95.10
2018-03-04T21:51:57.647Z,95.10
2018-03-04T21:54:01.039Z,95.10
2018-03-04T21:56:04.398Z,95.00
2018-03-04T21:58:08.470Z,95.00
2018-03-04T22:00:11.788Z,95.10
2018-03-04T22:02:15.140Z,95.00
2018-03-04T22:04:18.457Z,95.10
2018-03-04T22:06:21.815Z,95.30
2018-03-04T22:08:25.145Z,95.10
2018-03-04T22:10:28.473Z,95.30
2018-03-04T22:12:31.806Z,94.40
2018-03-04T22:14:35.131Z,95.00
2018-03-04T22:16:39.269Z,95.00
2018-03-04T22:18:42.575Z,95.00
2018-03-04T22:20:45.904Z,95.20
2018-03-04T22:22:49.241Z,95.40
2018-03-04T22:24:52.594Z,95.30
2018-03-04T22:26:55.909Z,95.10
2018-03-04T22:28:59.248Z,95.10
2018-03-04T22:31:02.591Z,95.20
2018-03-04T22:33:07.041Z,95.00
2018-03-04T22:35:10.444Z,95.00
2018-03-04T22:37:13.782Z,94.90
2018-03-04T22:39:17.877Z,95.20
2018-03-04T22:41:21.215Z,95.20
2018-03-04T22:43:24.561Z,94.90
2018-03-04T22:45:27.871Z,94.80
2018-03-04T22:47:31.946Z,94.60
2018-03-04T22:49:35.269Z,94.60
2018-03-04T22:51:39.350Z,94.70
2018-03-04T22:53:42.698Z,94.50
2018-03-04T22:55:46.020Z,94.50
2018-03-04T22:57:49.366Z,94.70
2018-03-04T22:59:52.684Z,94.20
2018-03-04T23:01:55.997Z,94.60
2018-03-04T23:04:00.148Z,94.60
2018-03-04T23:06:04.225Z,94.20
2018-03-04T23:08:07.559Z,94.30
2018-03-04T23:10:10.926Z,94.20
2018-03-04T23:12:14.237Z,94.10
2018-03-04T23:14:17.586Z,94.30
2018-03-04T23:16:20.922Z,94.10
2018-03-04T23:18:24.248Z,94.30
2018-03-04T23:20:27.554Z,94.20
2018-03-04T23:22:30.868Z,94.20
2018-03-04T23:24:34.994Z,93.40
2018-03-04T23:26:38.334Z,93.50
2018-03-04T23:28:41.688Z,93.50
2018-03-04T23:30:45.736Z,93.40
2018-03-04T23:32:49.078Z,93.30
2018-03-04T23:34:52.434Z,93.40
2018-03-04T23:36:55.784Z,93.40
2018-03-04T23:38:59.172Z,93.10
2018-03-04T23:41:02.495Z,93.00
2018-03-04T23:43:06.751Z,92.90
2018-03-04T23:45:10.897Z,93.00
2018-03-04T23:47:14.210Z,93.00
2018-03-04T23:49:17.520Z,93.10
2018-03-04T23:51:20.837Z,93.00
2018-03-04T23:53:24.154Z,93.10
2018-03-04T23:55:27.514Z,93.20
2018-03-04T23:57:31.119Z,93.30
2018-03-04T23:59:34.452Z,92.90
